sensor_id;sensor_type;location;lat;lon;timestamp;temperature;humidity
21834;DHT22;11079;51.092;3.458;2024-03-17T00:07:05;10.30;99.90
21834;DHT22;11079;51.092;3.458;2024-03-17T00:09:38;10.40;99.90
21834;DHT22;11079;51.092;3.458;2024-03-17T00:15:09;10.50;99.90
21834;DHT22;11079;51.092;3.458;2024-03-17T00:17:42;10.50;99.90
21834;DHT22;11079;51.092;3.458;2024-03-17T00:20:10;10.60;99.90
21834;DHT22;11079;51.092;3.458;2024-03-17T00:23:09;10.70;99.90
21834;DHT22;11079;51.092;3.458;2024-03-17T00:26:07;10.60;99.90
21834;DHT22;11079;51.092;3.458;2024-03-17T00:29:01;10.60;99.90
21834;DHT22;11079;51.092;3.458;2024-03-17T00:34:17;10.50;99.90
21834;DHT22;11079;51.092;3.458;2024-03-17T00:37:02;10.60;99.90
21834;DHT22;11079;51.092;3.458;2024-03-17T00:39:34;10.60;99.90
21834;DHT22;11079;51.092;3.458;2024-03-17T01:18:57;10.50;99.90
21834;DHT22;11079;51.092;3.458;2024-03-17T01:21:23;10.60;99.90
21834;DHT22;11079;51.092;3.458;2024-03-17T01:27:43;10.50;99.90
21834;DHT22;11079;51.092;3.458;2024-03-17T01:30:52;10.40;99.90
21834;DHT22;11079;51.092;3.458;2024-03-17T01:33:17;10.30;99.90
21834;DHT22;11079;51.092;3.458;2024-03-17T01:36:27;10.30;99.90
21834;DHT22;11079;51.092;3.458;2024-03-17T01:39:16;10.20;99.90
21834;DHT22;11079;51.092;3.458;2024-03-17T01:42:01;10.40;99.90
21834;DHT22;11079;51.092;3.458;2024-03-17T01:44:30;10.40;99.90
21834;DHT22;11079;51.092;3.458;2024-03-17T01:47:00;10.40;99.90
21834;DHT22;11079;51.092;3.458;2024-03-17T01:50:20;10.40;99.90
21834;DHT22;11079;51.092;3.458;2024-03-17T01:56:19;10.40;99.90
21834;DHT22;11079;51.092;3.458;2024-03-17T01:59:36;10.60;99.90
21834;DHT22;11079;51.092;3.458;2024-03-17T02:02:14;10.60;99.90
21834;DHT22;11079;51.092;3.458;2024-03-17T02:04:40;10.70;99.90
21834;DHT22;11079;51.092;3.458;2024-03-17T02:07:06;10.70;99.90
21834;DHT22;11079;51.092;3.458;2024-03-17T02:09:38;10.70;99.90
21834;DHT22;11079;51.092;3.458;2024-03-17T02:16:08;10.50;99.90
21834;DHT22;11079;51.092;3.458;2024-03-17T02:19:10;10.30;99.90
21834;DHT22;11079;51.092;3.458;2024-03-17T02:22:41;10.40;99.90
21834;DHT22;11079;51.092;3.458;2024-03-17T02:25:35;10.20;99.90
21834;DHT22;11079;51.092;3.458;2024-03-17T02:28:21;10.10;99.90
21834;DHT22;11079;51.092;3.458;2024-03-17T02:30:49;9.90;99.90
21834;DHT22;11079;51.092;3.458;2024-03-17T02:35:52;9.80;99.90
21834;DHT22;11079;51.092;3.458;2024-03-17T02:38:53;10.00;99.90
21834;DHT22;11079;51.092;3.458;2024-03-17T02:41:37;10.00;99.90
21834;DHT22;11079;51.092;3.458;2024-03-17T02:44:36;10.00;99.90
21834;DHT22;11079;51.092;3.458;2024-03-17T02:50:46;10.20;99.90
21834;DHT22;11079;51.092;3.458;2024-03-17T02:53:14;10.00;99.90
21834;DHT22;11079;51.092;3.458;2024-03-17T02:56:38;10.00;99.90
21834;DHT22;11079;51.092;3.458;2024-03-17T02:59:26;10.00;99.90
21834;DHT22;11079;51.092;3.458;2024-03-17T03:05:09;9.80;99.90
21834;DHT22;11079;51.092;3.458;2024-03-17T03:07:53;9.90;99.90
21834;DHT22;11079;51.092;3.458;2024-03-17T03:10:18;9.90;99.90
21834;DHT22;11079;51.092;3.458;2024-03-17T03:12:55;10.00;99.90
21834;DHT22;11079;51.092;3.458;2024-03-17T03:15:34;9.90;99.90
21834;DHT22;11079;51.092;3.458;2024-03-17T03:18:01;9.80;99.90
21834;DHT22;11079;51.092;3.458;2024-03-17T03:20:30;9.80;99.90
21834;DHT22;11079;51.092;3.458;2024-03-17T03:29:20;9.90;99.90
21834;DHT22;11079;51.092;3.458;2024-03-17T03:32:27;9.80;99.90
21834;DHT22;11079;51.092;3.458;2024-03-17T03:38:41;10.00;99.90
21834;DHT22;11079;51.092;3.458;2024-03-17T03:44:41;9.70;99.90
21834;DHT22;11079;51.092;3.458;2024-03-17T03:47:17;9.60;99.90
21834;DHT22;11079;51.092;3.458;2024-03-17T03:49:46;9.50;99.90
21834;DHT22;11079;51.092;3.458;2024-03-17T03:52:20;9.70;99.90
21834;DHT22;11079;51.092;3.458;2024-03-17T03:55:26;9.60;99.90
21834;DHT22;11079;51.092;3.458;2024-03-17T03:58:09;9.60;99.90
21834;DHT22;11079;51.092;3.458;2024-03-17T04:01:22;9.40;99.90
21834;DHT22;11079;51.092;3.458;2024-03-17T04:04:16;9.40;99.90
21834;DHT22;11079;51.092;3.458;2024-03-17T04:07:05;9.30;99.90
21834;DHT22;11079;51.092;3.458;2024-03-17T04:09:31;9.20;99.90
21834;DHT22;11079;51.092;3.458;2024-03-17T04:12:34;9.30;99.90
21834;DHT22;11079;51.092;3.458;2024-03-17T04:15:38;9.40;99.90
21834;DHT22;11079;51.092;3.458;2024-03-17T04:18:10;9.40;99.90
21834;DHT22;11079;51.092;3.458;2024-03-17T04:21:13;9.30;99.90
21834;DHT22;11079;51.092;3.458;2024-03-17T04:23:42;9.40;99.90
21834;DHT22;11079;51.092;3.458;2024-03-17T04:26:26;9.50;99.90
21834;DHT22;11079;51.092;3.458;2024-03-17T04:29:13;9.50;99.90
21834;DHT22;11079;51.092;3.458;2024-03-17T04:31:42;9.40;99.90
21834;DHT22;11079;51.092;3.458;2024-03-17T04:34:08;9.50;99.90
21834;DHT22;11079;51.092;3.458;2024-03-17T04:36:50;9.50;99.90
21834;DHT22;11079;51.092;3.458;2024-03-17T04:40:17;9.20;99.90
21834;DHT22;11079;51.092;3.458;2024-03-17T04:43:01;9.40;99.90
21834;DHT22;11079;51.092;3.458;2024-03-17T04:46:20;9.40;99.90
21834;DHT22;11079;51.092;3.458;2024-03-17T04:48:46;9.20;99.90
21834;DHT22;11079;51.092;3.458;2024-03-17T04:51:50;9.30;99.90
21834;DHT22;11079;51.092;3.458;2024-03-17T04:54:42;9.50;99.90
21834;DHT22;11079;51.092;3.458;2024-03-17T05:00:54;9.60;99.90
21834;DHT22;11079;51.092;3.458;2024-03-17T05:03:45;9.60;99.90
21834;DHT22;11079;51.092;3.458;2024-03-17T05:12:53;9.50;99.90
21834;DHT22;11079;51.092;3.458;2024-03-17T05:22:49;9.30;99.90
21834;DHT22;11079;51.092;3.458;2024-03-17T05:25:20;9.50;99.90
21834;DHT22;11079;51.092;3.458;2024-03-17T05:27:55;9.60;99.90
21834;DHT22;11079;51.092;3.458;2024-03-17T05:30:26;9.50;99.90
21834;DHT22;11079;51.092;3.458;2024-03-17T05:32:58;9.60;99.90
21834;DHT22;11079;51.092;3.458;2024-03-17T05:36:12;9.60;99.90
21834;DHT22;11079;51.092;3.458;2024-03-17T05:45:52;9.70;99.90
21834;DHT22;11079;51.092;3.458;2024-03-17T05:48:48;9.60;99.90
21834;DHT22;11079;51.092;3.458;2024-03-17T05:51:43;9.60;99.90
21834;DHT22;11079;51.092;3.458;2024-03-17T05:54:38;9.60;99.90
21834;DHT22;11079;51.092;3.458;2024-03-17T05:57:06;9.80;99.90
21834;DHT22;11079;51.092;3.458;2024-03-17T06:00:08;9.80;99.90
21834;DHT22;11079;51.092;3.458;2024-03-17T06:03:18;9.60;99.90
21834;DHT22;11079;51.092;3.458;2024-03-17T06:06:33;9.90;99.90
21834;DHT22;11079;51.092;3.458;2024-03-17T06:09:44;9.90;99.90
21834;DHT22;11079;51.092;3.458;2024-03-17T06:12:38;10.00;99.90
21834;DHT22;11079;51.092;3.458;2024-03-17T06:15:07;10.00;99.90
21834;DHT22;11079;51.092;3.458;2024-03-17T06:17:40;9.80;99.90
21834;DHT22;11079;51.092;3.458;2024-03-17T06:20:31;9.90;99.90
21834;DHT22;11079;51.092;3.458;2024-03-17T06:22:56;10.00;99.90
21834;DHT22;11079;51.092;3.458;2024-03-17T06:25:22;10.10;99.90
21834;DHT22;11079;51.092;3.458;2024-03-17T06:30:59;10.20;99.90
21834;DHT22;11079;51.092;3.458;2024-03-17T06:33:33;10.20;99.90
21834;DHT22;11079;51.092;3.458;2024-03-17T06:36:09;10.10;99.90
21834;DHT22;11079;51.092;3.458;2024-03-17T06:38:34;10.20;99.90
21834;DHT22;11079;51.092;3.458;2024-03-17T06:46:44;10.50;99.90
21834;DHT22;11079;51.092;3.458;2024-03-17T06:49:37;10.50;99.90
21834;DHT22;11079;51.092;3.458;2024-03-17T06:52:03;10.50;99.90
21834;DHT22;11079;51.092;3.458;2024-03-17T06:54:34;10.50;99.90
21834;DHT22;11079;51.092;3.458;2024-03-17T06:58:08;10.50;99.90
21834;DHT22;11079;51.092;3.458;2024-03-17T07:00:52;10.60;99.90
21834;DHT22;11079;51.092;3.458;2024-03-17T07:06:48;10.70;99.90
21834;DHT22;11079;51.092;3.458;2024-03-17T07:09:34;10.80;99.90
21834;DHT22;11079;51.092;3.458;2024-03-17T07:15:03;10.80;99.90
21834;DHT22;11079;51.092;3.458;2024-03-17T07:17:29;10.80;99.90
21834;DHT22;11079;51.092;3.458;2024-03-17T07:19:55;10.90;99.90
21834;DHT22;11079;51.092;3.458;2024-03-17T07:22:21;11.00;99.90
21834;DHT22;11079;51.092;3.458;2024-03-17T07:24:48;11.10;99.90
21834;DHT22;11079;51.092;3.458;2024-03-17T07:27:17;11.00;99.90
21834;DHT22;11079;51.092;3.458;2024-03-17T07:29:43;10.80;99.90
21834;DHT22;11079;51.092;3.458;2024-03-17T07:32:08;10.90;99.90
21834;DHT22;11079;51.092;3.458;2024-03-17T07:34:34;11.00;99.90
21834;DHT22;11079;51.092;3.458;2024-03-17T07:37:01;11.00;99.90
21834;DHT22;11079;51.092;3.458;2024-03-17T07:39:31;11.00;99.90
21834;DHT22;11079;51.092;3.458;2024-03-17T07:42:00;11.00;99.90
21834;DHT22;11079;51.092;3.458;2024-03-17T07:44:27;11.00;99.90
21834;DHT22;11079;51.092;3.458;2024-03-17T07:46:57;11.00;99.90
21834;DHT22;11079;51.092;3.458;2024-03-17T07:49:23;11.00;99.90
21834;DHT22;11079;51.092;3.458;2024-03-17T07:51:48;11.00;99.90
21834;DHT22;11079;51.092;3.458;2024-03-17T07:54:14;11.00;99.90
21834;DHT22;11079;51.092;3.458;2024-03-17T07:56:39;11.10;99.90
21834;DHT22;11079;51.092;3.458;2024-03-17T07:59:05;11.20;99.90
21834;DHT22;11079;51.092;3.458;2024-03-17T08:01:37;11.20;99.90
21834;DHT22;11079;51.092;3.458;2024-03-17T08:04:05;11.50;99.90
21834;DHT22;11079;51.092;3.458;2024-03-17T08:06:30;11.50;99.90
21834;DHT22;11079;51.092;3.458;2024-03-17T08:08:56;11.60;99.90
21834;DHT22;11079;51.092;3.458;2024-03-17T08:11:22;11.70;99.90
21834;DHT22;11079;51.092;3.458;2024-03-17T08:13:49;11.70;99.90
21834;DHT22;11079;51.092;3.458;2024-03-17T08:16:14;11.70;99.90
21834;DHT22;11079;51.092;3.458;2024-03-17T08:18:41;11.80;99.90
21834;DHT22;11079;51.092;3.458;2024-03-17T08:21:06;11.90;99.90
21834;DHT22;11079;51.092;3.458;2024-03-17T08:23:33;11.80;99.90
21834;DHT22;11079;51.092;3.458;2024-03-17T08:26:02;11.90;99.90
21834;DHT22;11079;51.092;3.458;2024-03-17T08:28:28;12.10;99.90
21834;DHT22;11079;51.092;3.458;2024-03-17T08:30:55;12.10;99.90
21834;DHT22;11079;51.092;3.458;2024-03-17T08:33:22;12.20;99.90
21834;DHT22;11079;51.092;3.458;2024-03-17T08:38:28;12.30;99.90
21834;DHT22;11079;51.092;3.458;2024-03-17T08:41:02;12.30;99.90
21834;DHT22;11079;51.092;3.458;2024-03-17T08:43:28;12.20;99.90
21834;DHT22;11079;51.092;3.458;2024-03-17T08:46:02;12.20;99.90
21834;DHT22;11079;51.092;3.458;2024-03-17T08:48:33;11.90;99.90
21834;DHT22;11079;51.092;3.458;2024-03-17T08:51:01;12.00;99.90
21834;DHT22;11079;51.092;3.458;2024-03-17T08:53:27;12.00;99.90
21834;DHT22;11079;51.092;3.458;2024-03-17T08:55:59;12.00;99.90
21834;DHT22;11079;51.092;3.458;2024-03-17T08:58:27;11.60;99.90
21834;DHT22;11079;51.092;3.458;2024-03-17T09:00:53;11.40;99.90
21834;DHT22;11079;51.092;3.458;2024-03-17T09:03:19;11.40;99.90
21834;DHT22;11079;51.092;3.458;2024-03-17T09:05:46;11.30;99.90
21834;DHT22;11079;51.092;3.458;2024-03-17T09:08:22;11.20;99.90
21834;DHT22;11079;51.092;3.458;2024-03-17T09:10:50;11.20;99.90
21834;DHT22;11079;51.092;3.458;2024-03-17T09:13:17;11.00;99.90
21834;DHT22;11079;51.092;3.458;2024-03-17T09:15:53;11.00;99.90
21834;DHT22;11079;51.092;3.458;2024-03-17T09:18:19;11.00;99.90
21834;DHT22;11079;51.092;3.458;2024-03-17T09:20:46;11.10;99.90
21834;DHT22;11079;51.092;3.458;2024-03-17T09:23:12;11.20;99.90
21834;DHT22;11079;51.092;3.458;2024-03-17T09:25:39;11.20;99.90
21834;DHT22;11079;51.092;3.458;2024-03-17T09:28:05;11.40;99.90
21834;DHT22;11079;51.092;3.458;2024-03-17T09:30:34;11.50;99.90
21834;DHT22;11079;51.092;3.458;2024-03-17T09:33:00;11.50;99.90
21834;DHT22;11079;51.092;3.458;2024-03-17T09:35:26;11.60;99.90
21834;DHT22;11079;51.092;3.458;2024-03-17T09:37:52;11.70;99.90
21834;DHT22;11079;51.092;3.458;2024-03-17T09:40:17;11.80;99.90
21834;DHT22;11079;51.092;3.458;2024-03-17T09:42:43;11.70;99.90
21834;DHT22;11079;51.092;3.458;2024-03-17T09:45:12;11.70;99.90
21834;DHT22;11079;51.092;3.458;2024-03-17T09:47:40;11.60;99.90
21834;DHT22;11079;51.092;3.458;2024-03-17T09:50:13;11.80;99.90
21834;DHT22;11079;51.092;3.458;2024-03-17T09:52:42;11.80;99.90
21834;DHT22;11079;51.092;3.458;2024-03-17T09:57:36;11.80;99.90
21834;DHT22;11079;51.092;3.458;2024-03-17T10:00:05;11.70;99.90
21834;DHT22;11079;51.092;3.458;2024-03-17T10:02:51;11.80;99.90
21834;DHT22;11079;51.092;3.458;2024-03-17T10:05:24;11.80;99.90
21834;DHT22;11079;51.092;3.458;2024-03-17T10:07:51;11.90;99.90
21834;DHT22;11079;51.092;3.458;2024-03-17T10:10:18;11.90;99.90
21834;DHT22;11079;51.092;3.458;2024-03-17T10:12:52;12.00;99.90
21834;DHT22;11079;51.092;3.458;2024-03-17T10:15:18;12.00;99.90
21834;DHT22;11079;51.092;3.458;2024-03-17T10:17:52;12.00;99.90
21834;DHT22;11079;51.092;3.458;2024-03-17T10:20:23;12.10;99.90
21834;DHT22;11079;51.092;3.458;2024-03-17T10:23:07;12.20;99.90
21834;DHT22;11079;51.092;3.458;2024-03-17T10:25:40;12.50;99.90
21834;DHT22;11079;51.092;3.458;2024-03-17T10:28:13;12.80;99.90
21834;DHT22;11079;51.092;3.458;2024-03-17T10:30:39;12.90;99.90
21834;DHT22;11079;51.092;3.458;2024-03-17T10:33:06;13.30;99.90
21834;DHT22;11079;51.092;3.458;2024-03-17T10:35:38;13.70;99.90
21834;DHT22;11079;51.092;3.458;2024-03-17T10:38:05;13.70;99.90
21834;DHT22;11079;51.092;3.458;2024-03-17T10:40:32;13.60;99.90
21834;DHT22;11079;51.092;3.458;2024-03-17T10:43:05;13.60;99.90
21834;DHT22;11079;51.092;3.458;2024-03-17T10:45:36;13.70;99.90
21834;DHT22;11079;51.092;3.458;2024-03-17T10:48:08;14.00;99.90
21834;DHT22;11079;51.092;3.458;2024-03-17T10:50:38;14.20;99.90
21834;DHT22;11079;51.092;3.458;2024-03-17T10:53:07;14.20;99.90
21834;DHT22;11079;51.092;3.458;2024-03-17T10:55:47;13.90;99.90
21834;DHT22;11079;51.092;3.458;2024-03-17T10:58:27;13.70;99.90
21834;DHT22;11079;51.092;3.458;2024-03-17T11:01:09;13.60;99.90
21834;DHT22;11079;51.092;3.458;2024-03-17T11:03:37;13.30;99.90
21834;DHT22;11079;51.092;3.458;2024-03-17T11:06:06;13.20;99.90
21834;DHT22;11079;51.092;3.458;2024-03-17T11:08:34;13.40;99.90
21834;DHT22;11079;51.092;3.458;2024-03-17T11:11:01;13.30;99.90
21834;DHT22;11079;51.092;3.458;2024-03-17T11:13:30;13.50;99.90
21834;DHT22;11079;51.092;3.458;2024-03-17T11:15:57;13.80;99.90
21834;DHT22;11079;51.092;3.458;2024-03-17T11:21:19;14.60;99.90
21834;DHT22;11079;51.092;3.458;2024-03-17T11:23:58;15.60;99.90
21834;DHT22;11079;51.092;3.458;2024-03-17T11:26:29;16.40;99.90
21834;DHT22;11079;51.092;3.458;2024-03-17T11:28:55;17.30;99.90
21834;DHT22;11079;51.092;3.458;2024-03-17T11:34:08;19.10;99.90
21834;DHT22;11079;51.092;3.458;2024-03-17T11:36:50;18.80;99.90
21834;DHT22;11079;51.092;3.458;2024-03-17T11:39:16;17.80;99.90
21834;DHT22;11079;51.092;3.458;2024-03-17T11:41:47;17.50;99.90
21834;DHT22;11079;51.092;3.458;2024-03-17T11:49:25;17.00;99.90
21834;DHT22;11079;51.092;3.458;2024-03-17T11:51:56;17.00;99.90
21834;DHT22;11079;51.092;3.458;2024-03-17T11:54:24;17.00;99.90
21834;DHT22;11079;51.092;3.458;2024-03-17T11:57:22;17.10;99.90
21834;DHT22;11079;51.092;3.458;2024-03-17T11:59:57;17.60;99.90
21834;DHT22;11079;51.092;3.458;2024-03-17T12:02:29;17.90;99.90
21834;DHT22;11079;51.092;3.458;2024-03-17T12:04:59;18.20;99.90
21834;DHT22;11079;51.092;3.458;2024-03-17T12:07:25;18.60;99.90
21834;DHT22;11079;51.092;3.458;2024-03-17T12:09:57;18.70;99.90
21834;DHT22;11079;51.092;3.458;2024-03-17T12:12:24;19.00;99.90
21834;DHT22;11079;51.092;3.458;2024-03-17T12:15:01;18.70;99.90
21834;DHT22;11079;51.092;3.458;2024-03-17T12:17:28;18.30;99.90
21834;DHT22;11079;51.092;3.458;2024-03-17T12:19:54;18.20;99.90
21834;DHT22;11079;51.092;3.458;2024-03-17T12:22:23;18.40;99.90
21834;DHT22;11079;51.092;3.458;2024-03-17T12:24:53;18.10;99.90
21834;DHT22;11079;51.092;3.458;2024-03-17T12:27:23;17.90;99.90
21834;DHT22;11079;51.092;3.458;2024-03-17T12:29:51;17.70;99.90
21834;DHT22;11079;51.092;3.458;2024-03-17T12:32:21;17.50;99.90
21834;DHT22;11079;51.092;3.458;2024-03-17T12:37:22;17.00;99.90
21834;DHT22;11079;51.092;3.458;2024-03-17T12:39:49;17.20;99.90
21834;DHT22;11079;51.092;3.458;2024-03-17T12:42:25;17.20;99.90
21834;DHT22;11079;51.092;3.458;2024-03-17T12:44:57;17.40;99.90
21834;DHT22;11079;51.092;3.458;2024-03-17T12:47:27;17.50;99.90
21834;DHT22;11079;51.092;3.458;2024-03-17T12:49:55;17.30;99.90
21834;DHT22;11079;51.092;3.458;2024-03-17T12:52:31;17.20;99.90
21834;DHT22;11079;51.092;3.458;2024-03-17T12:55:02;17.10;99.90
21834;DHT22;11079;51.092;3.458;2024-03-17T12:57:48;16.80;99.90
21834;DHT22;11079;51.092;3.458;2024-03-17T13:00:33;16.70;99.90
21834;DHT22;11079;51.092;3.458;2024-03-17T13:03:06;16.40;99.90
21834;DHT22;11079;51.092;3.458;2024-03-17T13:05:33;16.30;99.90
21834;DHT22;11079;51.092;3.458;2024-03-17T13:08:00;16.30;99.90
21834;DHT22;11079;51.092;3.458;2024-03-17T13:10:28;16.20;99.90
21834;DHT22;11079;51.092;3.458;2024-03-17T13:15:29;16.10;99.90
21834;DHT22;11079;51.092;3.458;2024-03-17T13:18:01;16.00;99.90
21834;DHT22;11079;51.092;3.458;2024-03-17T13:20:27;16.00;99.90
21834;DHT22;11079;51.092;3.458;2024-03-17T13:22:53;15.90;99.90
21834;DHT22;11079;51.092;3.458;2024-03-17T13:25:24;16.00;99.90
21834;DHT22;11079;51.092;3.458;2024-03-17T13:27:53;15.90;99.90
21834;DHT22;11079;51.092;3.458;2024-03-17T13:30:20;15.90;99.90
21834;DHT22;11079;51.092;3.458;2024-03-17T13:32:48;15.70;99.90
21834;DHT22;11079;51.092;3.458;2024-03-17T13:35:17;15.70;99.90
21834;DHT22;11079;51.092;3.458;2024-03-17T13:37:48;15.60;99.90
21834;DHT22;11079;51.092;3.458;2024-03-17T13:40:15;15.60;99.90
21834;DHT22;11079;51.092;3.458;2024-03-17T13:42:49;15.70;99.90
21834;DHT22;11079;51.092;3.458;2024-03-17T13:45:17;15.80;99.90
21834;DHT22;11079;51.092;3.458;2024-03-17T13:47:59;15.60;99.90
21834;DHT22;11079;51.092;3.458;2024-03-17T13:50:25;15.50;99.90
21834;DHT22;11079;51.092;3.458;2024-03-17T13:52:51;15.50;99.90
21834;DHT22;11079;51.092;3.458;2024-03-17T13:55:19;15.20;99.90
21834;DHT22;11079;51.092;3.458;2024-03-17T13:57:50;15.20;99.90
21834;DHT22;11079;51.092;3.458;2024-03-17T14:00:17;15.10;99.90
21834;DHT22;11079;51.092;3.458;2024-03-17T14:02:48;15.00;99.90
21834;DHT22;11079;51.092;3.458;2024-03-17T14:05:16;15.10;99.90
21834;DHT22;11079;51.092;3.458;2024-03-17T14:07:42;14.80;99.90
21834;DHT22;11079;51.092;3.458;2024-03-17T14:10:10;14.60;99.90
21834;DHT22;11079;51.092;3.458;2024-03-17T14:12:37;14.50;99.90
21834;DHT22;11079;51.092;3.458;2024-03-17T14:15:06;14.50;99.90
21834;DHT22;11079;51.092;3.458;2024-03-17T14:17:32;14.50;99.90
21834;DHT22;11079;51.092;3.458;2024-03-17T14:19:59;14.60;99.90
21834;DHT22;11079;51.092;3.458;2024-03-17T14:22:24;14.80;99.90
21834;DHT22;11079;51.092;3.458;2024-03-17T14:24:50;14.80;99.90
21834;DHT22;11079;51.092;3.458;2024-03-17T14:27:16;14.70;99.90
21834;DHT22;11079;51.092;3.458;2024-03-17T14:29:43;14.70;99.90
21834;DHT22;11079;51.092;3.458;2024-03-17T14:32:09;14.80;99.90
21834;DHT22;11079;51.092;3.458;2024-03-17T14:34:34;14.80;99.90
21834;DHT22;11079;51.092;3.458;2024-03-17T14:37:02;14.80;99.90
21834;DHT22;11079;51.092;3.458;2024-03-17T14:39:32;14.70;99.90
21834;DHT22;11079;51.092;3.458;2024-03-17T14:41:58;14.70;99.90
21834;DHT22;11079;51.092;3.458;2024-03-17T14:44:24;14.70;99.90
21834;DHT22;11079;51.092;3.458;2024-03-17T14:46:50;14.50;99.90
21834;DHT22;11079;51.092;3.458;2024-03-17T14:49:21;14.40;99.90
21834;DHT22;11079;51.092;3.458;2024-03-17T14:51:47;14.50;99.90
21834;DHT22;11079;51.092;3.458;2024-03-17T14:54:13;14.40;99.90
21834;DHT22;11079;51.092;3.458;2024-03-17T14:56:39;14.40;99.90
21834;DHT22;11079;51.092;3.458;2024-03-17T14:59:07;14.40;99.90
21834;DHT22;11079;51.092;3.458;2024-03-17T15:01:34;14.50;99.90
21834;DHT22;11079;51.092;3.458;2024-03-17T15:04:00;14.50;99.90
21834;DHT22;11079;51.092;3.458;2024-03-17T15:06:25;14.50;99.90
21834;DHT22;11079;51.092;3.458;2024-03-17T15:08:52;14.40;99.90
21834;DHT22;11079;51.092;3.458;2024-03-17T15:11:18;14.40;99.90
21834;DHT22;11079;51.092;3.458;2024-03-17T15:13:44;14.40;99.90
21834;DHT22;11079;51.092;3.458;2024-03-17T15:16:11;14.40;99.90
21834;DHT22;11079;51.092;3.458;2024-03-17T15:18:38;14.20;99.90
21834;DHT22;11079;51.092;3.458;2024-03-17T15:21:04;14.20;99.90
21834;DHT22;11079;51.092;3.458;2024-03-17T15:23:33;14.20;99.90
21834;DHT22;11079;51.092;3.458;2024-03-17T15:26:03;14.10;99.90
21834;DHT22;11079;51.092;3.458;2024-03-17T15:28:39;14.10;99.90
21834;DHT22;11079;51.092;3.458;2024-03-17T15:31:06;14.10;99.90
21834;DHT22;11079;51.092;3.458;2024-03-17T15:33:35;14.10;99.90
21834;DHT22;11079;51.092;3.458;2024-03-17T15:36:03;14.10;99.90
21834;DHT22;11079;51.092;3.458;2024-03-17T15:38:36;14.10;99.90
21834;DHT22;11079;51.092;3.458;2024-03-17T15:41:06;14.10;99.90
21834;DHT22;11079;51.092;3.458;2024-03-17T15:43:33;14.10;99.90
21834;DHT22;11079;51.092;3.458;2024-03-17T15:46:00;14.00;99.90
21834;DHT22;11079;51.092;3.458;2024-03-17T15:48:26;13.90;99.90
21834;DHT22;11079;51.092;3.458;2024-03-17T15:50:57;13.90;99.90
21834;DHT22;11079;51.092;3.458;2024-03-17T15:53:23;13.80;99.90
21834;DHT22;11079;51.092;3.458;2024-03-17T15:56:07;13.70;99.90
21834;DHT22;11079;51.092;3.458;2024-03-17T15:58:33;13.70;99.90
21834;DHT22;11079;51.092;3.458;2024-03-17T16:01:04;13.60;99.90
21834;DHT22;11079;51.092;3.458;2024-03-17T16:03:32;13.50;99.90
21834;DHT22;11079;51.092;3.458;2024-03-17T16:06:11;13.30;99.90
21834;DHT22;11079;51.092;3.458;2024-03-17T16:08:43;13.30;99.90
21834;DHT22;11079;51.092;3.458;2024-03-17T16:11:11;13.30;99.90
21834;DHT22;11079;51.092;3.458;2024-03-17T16:13:40;13.30;99.90
21834;DHT22;11079;51.092;3.458;2024-03-17T16:16:07;13.40;99.90
21834;DHT22;11079;51.092;3.458;2024-03-17T16:18:40;13.40;99.90
21834;DHT22;11079;51.092;3.458;2024-03-17T16:21:09;13.40;99.90
21834;DHT22;11079;51.092;3.458;2024-03-17T16:24:02;13.40;99.90
21834;DHT22;11079;51.092;3.458;2024-03-17T16:26:30;13.40;99.90
21834;DHT22;11079;51.092;3.458;2024-03-17T16:28:57;13.40;99.90
21834;DHT22;11079;51.092;3.458;2024-03-17T16:31:23;13.40;99.90
21834;DHT22;11079;51.092;3.458;2024-03-17T16:33:52;13.40;99.90
21834;DHT22;11079;51.092;3.458;2024-03-17T16:36:18;13.30;99.90
21834;DHT22;11079;51.092;3.458;2024-03-17T16:38:45;13.30;99.90
21834;DHT22;11079;51.092;3.458;2024-03-17T16:41:11;13.20;99.90
21834;DHT22;11079;51.092;3.458;2024-03-17T16:43:50;13.30;99.90
21834;DHT22;11079;51.092;3.458;2024-03-17T16:48:55;13.20;99.90
21834;DHT22;11079;51.092;3.458;2024-03-17T16:51:21;13.20;99.90
21834;DHT22;11079;51.092;3.458;2024-03-17T16:53:47;13.10;99.90
21834;DHT22;11079;51.092;3.458;2024-03-17T16:56:15;13.10;99.90
21834;DHT22;11079;51.092;3.458;2024-03-17T16:58:41;13.10;99.90
21834;DHT22;11079;51.092;3.458;2024-03-17T17:01:11;13.10;99.90
21834;DHT22;11079;51.092;3.458;2024-03-17T17:03:38;13.10;99.90
21834;DHT22;11079;51.092;3.458;2024-03-17T17:06:04;13.10;99.90
21834;DHT22;11079;51.092;3.458;2024-03-17T17:08:29;13.10;99.90
21834;DHT22;11079;51.092;3.458;2024-03-17T17:10:56;13.10;99.90
21834;DHT22;11079;51.092;3.458;2024-03-17T17:13:22;13.00;99.90
21834;DHT22;11079;51.092;3.458;2024-03-17T17:15:50;13.00;99.90
21834;DHT22;11079;51.092;3.458;2024-03-17T17:18:48;12.90;99.90
21834;DHT22;11079;51.092;3.458;2024-03-17T17:21:20;13.00;99.90
21834;DHT22;11079;51.092;3.458;2024-03-17T17:23:46;13.00;99.90
21834;DHT22;11079;51.092;3.458;2024-03-17T17:26:17;13.00;99.90
21834;DHT22;11079;51.092;3.458;2024-03-17T17:28:44;13.00;99.90
21834;DHT22;11079;51.092;3.458;2024-03-17T17:31:10;13.10;99.90
21834;DHT22;11079;51.092;3.458;2024-03-17T17:33:38;13.10;99.90
21834;DHT22;11079;51.092;3.458;2024-03-17T17:36:06;13.10;99.90
21834;DHT22;11079;51.092;3.458;2024-03-17T17:38:32;13.20;99.90
21834;DHT22;11079;51.092;3.458;2024-03-17T17:40:58;13.20;99.90
21834;DHT22;11079;51.092;3.458;2024-03-17T17:43:26;13.30;99.90
21834;DHT22;11079;51.092;3.458;2024-03-17T17:45:52;13.30;99.90
21834;DHT22;11079;51.092;3.458;2024-03-17T17:48:17;13.30;99.90
21834;DHT22;11079;51.092;3.458;2024-03-17T17:50:43;13.20;99.90
21834;DHT22;11079;51.092;3.458;2024-03-17T17:53:09;13.10;99.90
21834;DHT22;11079;51.092;3.458;2024-03-17T17:55:34;13.20;99.90
21834;DHT22;11079;51.092;3.458;2024-03-17T17:58:11;13.20;99.90
21834;DHT22;11079;51.092;3.458;2024-03-17T18:00:37;13.30;99.90
21834;DHT22;11079;51.092;3.458;2024-03-17T18:03:02;13.30;99.90
21834;DHT22;11079;51.092;3.458;2024-03-17T18:05:28;13.30;99.90
21834;DHT22;11079;51.092;3.458;2024-03-17T18:07:55;13.40;99.90
21834;DHT22;11079;51.092;3.458;2024-03-17T18:10:21;13.30;99.90
21834;DHT22;11079;51.092;3.458;2024-03-17T18:12:46;13.30;99.90
21834;DHT22;11079;51.092;3.458;2024-03-17T18:15:12;13.40;99.90
21834;DHT22;11079;51.092;3.458;2024-03-17T18:17:38;13.40;99.90
21834;DHT22;11079;51.092;3.458;2024-03-17T18:20:04;13.40;99.90
21834;DHT22;11079;51.092;3.458;2024-03-17T18:22:31;13.30;99.90
21834;DHT22;11079;51.092;3.458;2024-03-17T18:24:57;13.30;99.90
21834;DHT22;11079;51.092;3.458;2024-03-17T18:27:23;13.30;99.90
21834;DHT22;11079;51.092;3.458;2024-03-17T18:29:48;13.30;99.90
21834;DHT22;11079;51.092;3.458;2024-03-17T18:32:14;13.30;99.90
21834;DHT22;11079;51.092;3.458;2024-03-17T18:34:40;13.30;99.90
21834;DHT22;11079;51.092;3.458;2024-03-17T18:37:06;13.30;99.90